Time;durP1;ratioP1;P1;durP2;ratioP2;P2;SDS_P1;SDS_P2;PMS_P1;PMS_P2;Temp;Humidity;BMP_temperature;BMP_pressure;BME280_temperature;BME280_humidity;BME280_pressure;Samples;Min_cycle;Max_cycle;Signal;HPM_P1;HPM_P2
2024/01/24 00:01:43;;;;;;;1.95;0.70;;;;;;;8.57;100.00;100275.38;5200952;28;20036;-74
2024/01/24 00:04:13;;;;;;;1.13;0.30;;;;;;;8.57;100.00;100280.56;5204466;28;20098;-74
2024/01/24 00:06:43;;;;;;;2.72;0.55;;;;;;;8.61;100.00;100270.00;5203978;28;20037;-75
2024/01/24 00:09:14;;;;;;;2.65;0.40;;;;;;;8.61;100.00;100270.00;5207273;28;20393;-74
2024/01/24 00:11:44;;;;;;;2.15;0.50;;;;;;;8.69;100.00;100260.19;5206956;28;20034;-74
2024/01/24 00:14:14;;;;;;;1.63;0.50;;;;;;;8.70;100.00;100251.47;5198048;28;20472;-74
2024/01/24 00:16:44;;;;;;;1.63;0.50;;;;;;;8.76;100.00;100248.63;5199131;28;20117;-74
2024/01/24 00:19:15;;;;;;;2.72;0.50;;;;;;;8.76;100.00;100227.81;5207109;28;20029;-74
2024/01/24 00:21:45;;;;;;;1.13;0.40;;;;;;;8.75;100.00;100226.09;5208808;28;20056;-74
2024/01/24 00:24:16;;;;;;;1.05;0.45;;;;;;;8.83;100.00;100216.28;5208958;28;20021;-75
2024/01/24 00:26:46;;;;;;;2.15;0.50;;;;;;;8.76;100.00;100199.16;5208999;28;20104;-75
2024/01/24 00:29:16;;;;;;;1.33;0.50;;;;;;;8.86;100.00;100197.94;5202726;28;20524;-71
2024/01/24 00:31:48;;;;;;;1.35;0.32;;;;;;;8.77;100.00;100185.25;5204318;28;20029;-75
2024/01/24 00:34:18;;;;;;;3.60;0.65;;;;;;;8.85;100.00;100178.00;5207727;28;20478;-74
2024/01/24 00:36:50;;;;;;;2.88;0.40;;;;;;;8.83;100.00;100174.59;5209040;28;20032;-74
2024/01/24 00:39:20;;;;;;;1.98;0.50;;;;;;;8.84;100.00;100165.88;5208000;28;20039;-74
2024/01/24 00:41:50;;;;;;;1.67;0.50;;;;;;;8.84;100.00;100173.69;5206302;28;20033;-74
2024/01/24 00:44:21;;;;;;;2.20;0.60;;;;;;;8.90;100.00;100176.06;5198604;28;20687;-75
2024/01/24 00:46:51;;;;;;;2.35;0.73;;;;;;;8.91;100.00;100182.16;5203884;28;20029;-74
2024/01/24 00:49:22;;;;;;;0.80;0.50;;;;;;;8.92;100.00;100168.22;5210387;28;20276;-73
2024/01/24 00:51:52;;;;;;;2.10;0.68;;;;;;;8.96;100.00;100164.59;5215933;28;20115;-75
2024/01/24 00:54:23;;;;;;;1.75;0.57;;;;;;;8.99;100.00;100165.34;5213581;28;20025;-75
2024/01/24 00:56:53;;;;;;;1.98;0.47;;;;;;;9.00;100.00;100161.81;5214975;28;20108;-74
2024/01/24 00:59:23;;;;;;;5.15;0.80;;;;;;;8.99;100.00;100169.69;5209096;28;20524;-72
2024/01/24 01:01:53;;;;;;;1.65;0.50;;;;;;;9.07;100.00;100155.47;5215243;28;20495;-74
2024/01/24 01:04:24;;;;;;;4.07;0.65;;;;;;;9.08;100.00;100151.13;5214977;28;20164;-72
2024/01/24 01:06:54;;;;;;;2.05;0.60;;;;;;;9.17;100.00;100117.75;5216614;28;20474;-75
2024/01/24 01:09:24;;;;;;;0.60;0.40;;;;;;;9.18;100.00;100103.81;5209779;28;20033;-73
2024/01/24 01:12:07;;;;;;;2.00;0.60;;;;;;;9.19;100.00;100108.13;5217021;28;20581;-75
2024/01/24 01:14:37;;;;;;;1.48;0.52;;;;;;;9.21;100.00;100088.03;5208243;28;20055;-74
2024/01/24 01:17:08;;;;;;;2.90;0.55;;;;;;;9.24;100.00;100067.06;5215820;28;20083;-73
2024/01/24 01:19:38;;;;;;;1.73;0.60;;;;;;;9.24;100.00;100072.28;5211929;28;20051;-75
2024/01/24 01:22:08;;;;;;;1.35;0.55;;;;;;;9.21;100.00;100068.06;5215908;28;20020;-75
2024/01/24 01:24:38;;;;;;;2.67;0.50;;;;;;;9.25;100.00;100063.56;5217290;28;20025;-75
2024/01/24 01:27:09;;;;;;;1.33;0.40;;;;;;;9.34;100.00;100089.28;5215387;28;20035;-75
2024/01/24 01:29:39;;;;;;;2.08;0.45;;;;;;;9.29;100.00;100067.75;5209671;28;20025;-74
2024/01/24 01:32:10;;;;;;;1.85;0.40;;;;;;;9.34;100.00;100053.63;5218619;28;20372;-74
2024/01/24 01:34:40;;;;;;;1.13;0.60;;;;;;;9.45;100.00;100055.81;5220783;28;20037;-74
2024/01/24 01:37:10;;;;;;;2.25;0.50;;;;;;;9.38;100.00;100073.47;5217430;28;20027;-73
2024/01/24 01:39:41;;;;;;;1.67;0.32;;;;;;;9.48;100.00;100087.00;5217475;28;20036;-75
2024/01/24 01:42:11;;;;;;;1.85;0.55;;;;;;;9.39;100.00;100082.13;5202585;28;20022;-75
2024/01/24 01:44:48;;;;;;;1.30;0.50;;;;;;;9.46;100.00;100087.03;5210694;28;20071;-73
2024/01/24 01:47:20;;;;;;;3.75;0.70;;;;;;;9.50;100.00;100077.34;5217532;28;20464;-75
2024/01/24 01:49:52;;;;;;;1.20;0.70;;;;;;;9.43;100.00;100088.91;5220501;28;20079;-74
2024/01/24 01:52:24;;;;;;;3.08;0.45;;;;;;;9.48;100.00;100080.00;5220853;28;20443;-75
2024/01/24 01:54:54;;;;;;;2.55;0.85;;;;;;;9.51;100.00;100072.06;5217316;28;20036;-75
2024/01/24 01:57:25;;;;;;;2.95;0.90;;;;;;;9.62;100.00;100058.63;5220055;28;20032;-75
2024/01/24 01:59:56;;;;;;;3.40;0.90;;;;;;;9.70;100.00;100051.31;5216020;28;20032;-75
2024/01/24 02:02:26;;;;;;;3.78;0.90;;;;;;;9.74;100.00;100050.28;5216363;28;20033;-74
2024/01/24 02:04:57;;;;;;;4.53;1.08;;;;;;;9.70;100.00;100035.66;5211277;28;20067;-75
2024/01/24 02:07:28;;;;;;;4.47;1.08;;;;;;;9.75;100.00;100037.19;5207081;28;20041;-76
2024/01/24 02:09:58;;;;;;;1.83;0.85;;;;;;;9.74;100.00;100034.63;5210234;28;20025;-74
2024/01/24 02:12:29;;;;;;;2.63;0.93;;;;;;;9.74;100.00;100027.66;5208913;28;20364;-74
2024/01/24 02:14:59;;;;;;;5.75;1.20;;;;;;;9.80;100.00;100047.44;5213156;28;20036;-75
2024/01/24 02:17:29;;;;;;;2.55;0.90;;;;;;;9.87;100.00;100056.69;5215212;28;20543;-75
2024/01/24 02:20:00;;;;;;;6.68;1.63;;;;;;;9.85;100.00;100048.09;5216889;28;20190;-75
2024/01/24 02:22:30;;;;;;;4.35;1.48;;;;;;;9.86;100.00;100027.13;5210847;28;20087;-74
2024/01/24 02:25:01;;;;;;;5.95;1.80;;;;;;;9.89;100.00;100031.38;5209693;28;20065;-75
2024/01/24 02:27:31;;;;;;;5.25;2.08;;;;;;;9.90;100.00;100025.25;5211635;28;20022;-74
2024/01/24 02:30:01;;;;;;;7.65;2.60;;;;;;;9.95;100.00;99999.81;5214924;28;20478;-74
2024/01/24 02:32:32;;;;;;;8.23;2.17;;;;;;;9.96;100.00;99994.53;5208728;28;20034;-75
2024/01/24 02:35:04;;;;;;;9.48;2.30;;;;;;;10.02;100.00;99988.25;5211019;28;20025;-75
2024/01/24 02:37:34;;;;;;;7.78;2.30;;;;;;;10.09;100.00;99998.34;5210029;28;20064;-75
2024/01/24 02:40:06;;;;;;;6.65;1.65;;;;;;;10.09;100.00;99997.50;5201057;28;20095;-71
2024/01/24 02:42:36;;;;;;;4.38;1.60;;;;;;;10.16;100.00;99981.50;5207363;28;20120;-75
2024/01/24 02:45:07;;;;;;;4.55;1.77;;;;;;;10.15;100.00;99987.63;5213178;28;20135;-73
2024/01/24 02:47:37;;;;;;;6.03;1.52;;;;;;;10.10;100.00;99989.59;5196403;28;20036;-75
2024/01/24 02:50:09;;;;;;;4.55;1.67;;;;;;;10.18;100.00;100007.56;5216018;28;20025;-74
2024/01/24 02:52:39;;;;;;;5.43;2.20;;;;;;;10.14;100.00;100000.78;5211971;28;20052;-74
2024/01/24 02:55:16;;;;;;;5.65;1.70;;;;;;;10.21;100.00;99996.97;5215014;28;20025;-75
2024/01/24 02:57:47;;;;;;;4.88;1.48;;;;;;;10.16;100.00;99989.34;5212766;28;20108;-75
2024/01/24 03:00:17;;;;;;;6.57;1.40;;;;;;;10.02;100.00;99983.00;5211636;28;20108;-73
2024/01/24 03:02:48;;;;;;;6.00;1.80;;;;;;;9.94;100.00;99988.53;5213197;28;20363;-75
2024/01/24 03:05:18;;;;;;;4.88;1.20;;;;;;;9.99;100.00;99981.34;5210423;28;20135;-74
2024/01/24 03:07:48;;;;;;;4.03;1.30;;;;;;;9.92;100.00;99977.31;5212607;28;20032;-75
2024/01/24 03:10:21;;;;;;;3.83;1.55;;;;;;;9.89;100.00;99985.28;5213577;28;20383;-75
2024/01/24 03:12:52;;;;;;;3.90;1.25;;;;;;;9.89;100.00;99992.25;5209735;28;20036;-75
2024/01/24 03:15:22;;;;;;;3.53;1.40;;;;;;;9.87;100.00;99984.50;5190425;28;20075;-75
2024/01/24 03:17:53;;;;;;;3.58;1.02;;;;;;;9.93;100.00;99983.34;5208131;28;20064;-75
2024/01/24 03:20:23;;;;;;;1.75;0.70;;;;;;;9.92;100.00;99979.06;5212919;28;20402;-75
2024/01/24 03:22:53;;;;;;;3.42;1.08;;;;;;;9.89;100.00;99984.41;5213181;28;20104;-75
2024/01/24 03:25:23;;;;;;;4.78;1.02;;;;;;;9.84;100.00;99975.94;5213024;28;20370;-76
2024/01/24 03:27:54;;;;;;;2.75;0.98;;;;;;;9.89;100.00;99974.84;5211022;28;20029;-76
2024/01/24 03:30:24;;;;;;;3.20;0.98;;;;;;;9.87;100.00;99954.91;5211356;28;20055;-75
2024/01/24 03:32:54;;;;;;;2.47;0.80;;;;;;;9.88;100.00;99946.19;5211543;28;20075;-75
2024/01/24 03:35:24;;;;;;;2.50;0.93;;;;;;;9.87;100.00;99955.78;5202596;28;20387;-76
2024/01/24 03:37:55;;;;;;;3.80;0.90;;;;;;;9.89;100.00;99950.47;5210670;28;20041;-75
2024/01/24 03:40:25;;;;;;;2.00;0.70;;;;;;;9.89;100.00;99947.88;5209582;28;20033;-73
2024/01/24 03:42:56;;;;;;;4.18;0.90;;;;;;;9.97;100.00;99940.56;5208934;28;20027;-75
2024/01/24 03:45:26;;;;;;;1.70;0.65;;;;;;;9.95;100.00;99945.84;5206753;28;20060;-74
2024/01/24 03:47:57;;;;;;;2.55;0.68;;;;;;;9.98;100.00;99937.06;5213278;28;20040;-76
2024/01/24 03:50:27;;;;;;;1.85;0.50;;;;;;;10.00;100.00;99930.00;5206947;28;20025;-74
2024/01/24 03:52:57;;;;;;;1.00;0.50;;;;;;;10.10;100.00;99920.88;5211293;28;20029;-75
2024/01/24 03:55:28;;;;;;;2.50;0.70;;;;;;;10.04;100.00;99926.38;5205845;28;20025;-75
2024/01/24 03:57:59;;;;;;;2.35;0.60;;;;;;;10.17;100.00;99911.88;5213911;28;20016;-75
2024/01/24 04:00:29;;;;;;;2.28;0.60;;;;;;;10.14;100.00;99912.00;5212488;22;20382;-75
2024/01/24 04:02:59;;;;;;;1.30;0.30;;;;;;;10.15;100.00;99893.66;5178728;28;20313;-75
2024/01/24 04:05:29;;;;;;;2.50;0.60;;;;;;;10.19;100.00;99899.59;5180370;28;20021;-75
2024/01/24 04:08:00;;;;;;;2.10;0.52;;;;;;;10.16;100.00;99899.72;5185172;28;20079;-75
2024/01/24 04:10:30;;;;;;;0.82;0.35;;;;;;;10.21;100.00;99898.59;5194528;28;20046;-75
2024/01/24 04:13:00;;;;;;;0.93;0.45;;;;;;;10.28;100.00;99892.19;5198013;28;20032;-76
2024/01/24 04:15:31;;;;;;;0.45;0.30;;;;;;;10.27;100.00;99893.09;5196248;28;20304;-75
2024/01/24 04:18:02;;;;;;;1.02;0.47;;;;;;;10.24;100.00;99889.78;5188693;28;20411;-74
2024/01/24 04:20:32;;;;;;;2.13;0.45;;;;;;;10.27;100.00;99897.47;5196760;28;20033;-75
2024/01/24 04:23:03;;;;;;;1.05;0.38;;;;;;;10.33;100.00;99877.16;5193142;28;20021;-75
2024/01/24 04:25:33;;;;;;;2.78;0.30;;;;;;;10.34;100.00;99873.63;5196106;28;20029;-75
2024/01/24 04:28:03;;;;;;;1.85;0.50;;;;;;;10.39;100.00;99882.09;5197198;28;20124;-75
2024/01/24 04:30:34;;;;;;;1.42;0.47;;;;;;;10.42;100.00;99881.09;5192748;28;20033;-76
2024/01/24 04:33:04;;;;;;;3.05;0.50;;;;;;;10.44;100.00;99879.25;5195799;28;20040;-75
2024/01/24 04:35:34;;;;;;;1.75;0.40;;;;;;;10.48;100.00;99870.38;5196799;28;20407;-75
2024/01/24 04:38:05;;;;;;;0.70;0.50;;;;;;;10.47;100.00;99873.88;5197221;28;20033;-75
2024/01/24 04:40:35;;;;;;;1.00;0.60;;;;;;;10.58;100.00;99869.03;5195911;28;20559;-75
2024/01/24 04:43:07;;;;;;;1.02;0.50;;;;;;;10.65;100.00;99860.81;5194376;28;20021;-76
2024/01/24 04:45:37;;;;;;;3.88;0.50;;;;;;;10.66;100.00;99859.91;5192398;28;20642;-75
2024/01/24 04:48:08;;;;;;;1.90;0.77;;;;;;;10.62;100.00;99858.38;5197805;28;20033;-75
2024/01/24 04:50:38;;;;;;;3.10;0.90;;;;;;;10.68;100.00;99862.47;5196836;28;20522;-75
2024/01/24 04:53:08;;;;;;;2.60;0.95;;;;;;;10.73;100.00;99873.53;5195446;28;20339;-75
2024/01/24 04:55:39;;;;;;;3.42;1.30;;;;;;;10.76;100.00;99876.00;5193421;28;20033;-75
2024/01/24 04:58:09;;;;;;;4.53;1.50;;;;;;;10.74;100.00;99856.94;5196365;28;20439;-75
2024/01/24 05:00:39;;;;;;;6.75;1.50;;;;;;;10.83;100.00;99857.34;5196184;28;20479;-75
2024/01/24 05:03:09;;;;;;;4.07;1.58;;;;;;;11.02;100.00;99846.84;5195621;28;20025;-75
2024/01/24 05:05:40;;;;;;;2.97;1.42;;;;;;;11.04;100.00;99845.84;5195899;28;20490;-75
2024/01/24 05:08:11;;;;;;;2.20;1.20;;;;;;;11.22;100.00;99832.72;5196411;28;20038;-76
2024/01/24 05:10:41;;;;;;;2.72;0.98;;;;;;;11.27;100.00;99820.22;5194659;28;20024;-75
2024/01/24 05:13:11;;;;;;;2.25;0.80;;;;;;;11.42;100.00;99834.34;5195459;28;20482;-75
2024/01/24 05:15:41;;;;;;;3.00;0.90;;;;;;;11.51;100.00;99795.47;5191496;28;20029;-75
2024/01/24 05:18:12;;;;;;;3.72;0.90;;;;;;;11.62;100.00;99795.75;5196990;28;20475;-75
2024/01/24 05:20:42;;;;;;;2.55;0.80;;;;;;;11.64;100.00;99816.63;5194767;28;20037;-75
2024/01/24 05:23:12;;;;;;;1.55;0.60;;;;;;;11.79;100.00;99837.59;5194665;28;20399;-75
2024/01/24 05:25:43;;;;;;;2.53;0.70;;;;;;;12.04;100.00;99840.63;5193046;28;20029;-75
2024/01/24 05:28:14;;;;;;;0.90;0.50;;;;;;;12.07;100.00;99834.38;5191777;28;20105;-75
2024/01/24 05:30:44;;;;;;;0.60;0.40;;;;;;;12.18;100.00;99848.63;5195976;28;20034;-75
2024/01/24 05:33:14;;;;;;;0.63;0.30;;;;;;;12.32;100.00;99851.31;5196194;28;20070;-75
2024/01/24 05:35:45;;;;;;;0.75;0.40;;;;;;;12.31;100.00;99836.53;5199172;28;20029;-75
2024/01/24 05:38:16;;;;;;;1.27;0.40;;;;;;;12.52;100.00;99860.72;5196990;28;20022;-75
2024/01/24 05:40:46;;;;;;;0.43;0.30;;;;;;;12.59;100.00;99873.41;5195486;28;20078;-75
2024/01/24 05:43:17;;;;;;;1.00;0.30;;;;;;;12.54;100.00;99900.78;5200380;28;20091;-74
2024/01/24 05:45:50;;;;;;;0.70;0.35;;;;;;;12.59;100.00;99894.38;5199014;28;20033;-76
2024/01/24 05:48:21;;;;;;;1.83;0.30;;;;;;;12.70;100.00;99878.06;5201044;28;20059;-75
2024/01/24 05:50:51;;;;;;;1.90;0.47;;;;;;;12.65;100.00;99909.75;5198352;28;20033;-76
2024/01/24 05:53:22;;;;;;;1.80;0.32;;;;;;;12.71;100.00;99929.56;5192524;28;20441;-75
2024/01/24 05:55:52;;;;;;;0.93;0.30;;;;;;;12.70;100.00;99917.38;5192049;28;20064;-75
2024/01/24 05:58:22;;;;;;;3.17;0.40;;;;;;;12.59;100.00;99922.34;5191782;28;20057;-75
2024/01/24 06:00:53;;;;;;;1.85;0.32;;;;;;;12.45;100.00;99938.00;5197997;28;20045;-75
2024/01/24 06:03:24;;;;;;;3.03;0.85;;;;;;;12.18;100.00;99961.25;5189763;28;20040;-74
2024/01/24 06:05:54;;;;;;;2.05;0.40;;;;;;;12.01;100.00;99966.50;5187314;28;20045;-75
2024/01/24 06:08:24;;;;;;;3.13;1.02;;;;;;;11.90;100.00;99968.81;5191702;28;20060;-75
2024/01/24 06:10:55;;;;;;;2.13;0.50;;;;;;;11.92;100.00;99964.34;5189285;28;20112;-75
2024/01/24 06:13:25;;;;;;;2.35;0.40;;;;;;;11.89;100.00;99982.84;5195637;28;20021;-75
2024/01/24 06:15:56;;;;;;;2.30;0.50;;;;;;;11.92;100.00;99976.59;5193433;28;20026;-75
2024/01/24 06:18:26;;;;;;;1.92;0.50;;;;;;;11.87;100.00;99974.22;5195540;28;20049;-75
2024/01/24 06:20:57;;;;;;;4.25;0.47;;;;;;;11.85;100.00;99991.78;5187384;28;20040;-74
2024/01/24 06:23:27;;;;;;;2.35;0.50;;;;;;;11.97;100.00;99999.00;5188978;28;20030;-74
2024/01/24 06:25:57;;;;;;;7.90;0.60;;;;;;;12.04;100.00;99997.78;5194822;28;20029;-74
2024/01/24 06:28:28;;;;;;;1.77;0.50;;;;;;;12.00;100.00;99988.41;5192654;28;20033;-74
2024/01/24 06:30:58;;;;;;;4.47;0.60;;;;;;;11.90;100.00;99986.28;5180238;28;20021;-75
2024/01/24 06:33:28;;;;;;;6.28;0.95;;;;;;;11.82;100.00;99985.84;5198965;28;20112;-74
2024/01/24 06:35:58;;;;;;;6.80;1.58;;;;;;;11.73;100.00;99987.16;5184391;28;20511;-75
2024/01/24 06:38:29;;;;;;;9.45;0.90;;;;;;;11.72;100.00;99998.53;5180218;28;20030;-74
2024/01/24 06:40:59;;;;;;;9.23;1.10;;;;;;;11.75;100.00;99977.44;5186805;28;20026;-75
2024/01/24 06:43:30;;;;;;;6.63;0.90;;;;;;;11.61;100.00;99994.75;5191318;28;20491;-74
2024/01/24 06:46:02;;;;;;;8.25;1.08;;;;;;;11.60;100.00;99991.28;5189438;28;20140;-74
2024/01/24 06:48:33;;;;;;;9.80;1.42;;;;;;;11.69;100.00;100013.53;5187568;28;20103;-74
2024/01/24 06:51:04;;;;;;;4.97;1.00;;;;;;;11.72;100.00;100023.84;5191609;28;20038;-74
2024/01/24 06:53:35;;;;;;;8.32;1.23;;;;;;;11.66;100.00;100027.66;5197558;28;20033;-74
2024/01/24 06:56:06;;;;;;;9.48;1.33;;;;;;;11.62;100.00;100001.69;5193130;28;20429;-74
2024/01/24 06:58:40;;;;;;;6.70;1.00;;;;;;;11.74;100.00;100022.88;5191579;28;20502;-75
2024/01/24 07:01:11;;;;;;;6.63;0.82;;;;;;;11.86;100.00;100024.88;5182282;28;20041;-74
2024/01/24 07:03:42;;;;;;;8.32;1.50;;;;;;;11.84;100.00;100042.44;5185791;28;20058;-74
2024/01/24 07:06:12;;;;;;;9.10;1.10;;;;;;;11.83;98.56;100061.69;5181180;28;20255;-74
2024/01/24 07:08:42;;;;;;;6.53;1.20;;;;;;;11.77;98.66;100038.41;5186071;28;20051;-74
2024/01/24 07:11:12;;;;;;;8.30;1.30;;;;;;;11.75;95.69;100045.50;5181099;28;20030;-74
2024/01/24 07:13:43;;;;;;;8.43;1.17;;;;;;;11.80;92.61;100038.25;5183948;28;20388;-74
2024/01/24 07:16:13;;;;;;;11.02;1.70;;;;;;;11.85;90.13;100035.44;5183247;28;20299;-74
2024/01/24 07:18:43;;;;;;;11.30;1.40;;;;;;;11.79;90.20;100038.34;5188648;28;20029;-75
2024/01/24 07:21:14;;;;;;;11.20;1.50;;;;;;;11.81;90.34;100039.97;5181792;28;20273;-75
2024/01/24 07:23:45;;;;;;;12.60;2.40;;;;;;;11.74;90.89;100033.34;5186835;28;20246;-74
2024/01/24 07:26:15;;;;;;;8.73;1.88;;;;;;;11.79;90.79;100035.75;5178373;28;20101;-74
2024/01/24 07:28:45;;;;;;;11.18;1.50;;;;;;;11.66;91.16;100050.34;5189665;28;20028;-74
2024/01/24 07:31:17;;;;;;;8.15;1.55;;;;;;;11.73;89.43;100057.81;5185153;28;20040;-75
2024/01/24 07:33:48;;;;;;;7.57;1.33;;;;;;;11.80;87.43;100074.91;5186016;28;20487;-74
2024/01/24 07:36:21;;;;;;;7.72;1.40;;;;;;;11.84;87.14;100080.84;5185077;28;20088;-74
2024/01/24 07:38:52;;;;;;;10.85;1.70;;;;;;;11.88;87.24;100087.63;5191344;28;20411;-74
2024/01/24 07:41:23;;;;;;;9.68;1.58;;;;;;;11.86;86.60;100090.34;5185294;28;20022;-74
2024/01/24 07:43:53;;;;;;;13.10;1.73;;;;;;;11.88;87.41;100098.97;5187107;28;20491;-74
2024/01/24 07:46:25;;;;;;;10.68;1.90;;;;;;;11.86;86.50;100097.34;5182254;28;20034;-74
2024/01/24 07:48:55;;;;;;;15.60;2.88;;;;;;;11.80;87.00;100090.63;5186915;28;20036;-72
2024/01/24 07:51:26;;;;;;;8.63;2.00;;;;;;;11.66;87.62;100085.22;5185139;28;20491;-74
2024/01/24 07:53:56;;;;;;;14.05;2.03;;;;;;;11.63;87.95;100108.91;5186616;28;20025;-74
2024/01/24 07:56:26;;;;;;;13.35;1.92;;;;;;;11.58;87.66;100129.22;5183696;28;20033;-74
2024/01/24 07:58:57;;;;;;;13.25;1.98;;;;;;;11.60;87.49;100134.41;5184822;28;20345;-74
2024/01/24 08:01:27;;;;;;;14.80;2.22;;;;;;;11.66;87.33;100144.56;5185339;28;20045;-74
2024/01/24 08:04:00;;;;;;;18.90;4.22;;;;;;;11.59;88.00;100144.00;5188662;28;20025;-74
2024/01/24 08:06:30;;;;;;;20.60;2.60;;;;;;;11.56;89.14;100144.16;5190650;28;20025;-73
2024/01/24 08:09:01;;;;;;;16.45;3.38;;;;;;;11.53;90.12;100143.41;5193562;28;20258;-74
2024/01/24 08:11:31;;;;;;;14.27;2.13;;;;;;;11.49;90.67;100132.25;5195618;28;20398;-73
2024/01/24 08:14:01;;;;;;;17.60;2.30;;;;;;;11.55;91.37;100160.75;5188482;28;20049;-73
2024/01/24 08:16:32;;;;;;;16.95;2.63;;;;;;;11.56;90.02;100159.84;5196329;28;20176;-73
2024/01/24 08:19:02;;;;;;;12.65;2.60;;;;;;;11.50;90.72;100164.47;5193564;28;20018;-74
2024/01/24 08:21:32;;;;;;;15.32;2.70;;;;;;;11.48;90.99;100151.47;5194470;28;20112;-73
2024/01/24 08:24:03;;;;;;;17.80;2.95;;;;;;;11.45;89.60;100151.59;5191960;28;20025;-74
2024/01/24 08:26:35;;;;;;;18.00;2.85;;;;;;;11.47;88.66;100156.78;5195450;28;20071;-74
2024/01/24 08:29:05;;;;;;;11.85;2.03;;;;;;;11.52;87.11;100144.31;5191511;28;20039;-74
2024/01/24 08:31:35;;;;;;;16.15;2.47;;;;;;;11.51;86.67;100137.38;5194775;28;20104;-74
2024/01/24 08:34:05;;;;;;;16.25;2.72;;;;;;;11.51;86.50;100155.72;5192134;28;20034;-74
2024/01/24 08:36:36;;;;;;;16.08;3.03;;;;;;;11.48;87.08;100172.38;5194142;28;20037;-74
2024/01/24 08:39:06;;;;;;;16.48;3.00;;;;;;;11.47;86.46;100170.69;5193830;28;20056;-73
2024/01/24 08:41:37;;;;;;;17.70;3.65;;;;;;;11.57;86.58;100171.16;5207519;28;20418;-74
2024/01/24 08:44:07;;;;;;;18.17;3.72;;;;;;;11.63;87.01;100181.34;5191978;28;20032;-74
2024/01/24 08:46:38;;;;;;;17.10;2.92;;;;;;;11.53;86.66;100203.59;5194764;28;20036;-74
2024/01/24 08:49:08;;;;;;;15.52;3.40;;;;;;;11.64;86.33;100190.91;5194531;28;20119;-74
2024/01/24 08:51:39;;;;;;;12.65;2.70;;;;;;;11.54;86.15;100176.50;5193738;28;20021;-74
2024/01/24 08:54:10;;;;;;;15.82;2.67;;;;;;;11.60;86.12;100187.56;5197872;28;20033;-74
2024/01/24 08:56:41;;;;;;;16.80;2.60;;;;;;;11.44;86.92;100196.16;5196179;28;20120;-74
2024/01/24 08:59:11;;;;;;;17.55;2.40;;;;;;;11.40;86.94;100197.19;5192997;28;20113;-74
2024/01/24 09:01:41;;;;;;;23.65;3.28;;;;;;;11.39;88.35;100198.97;5193764;28;20030;-74
2024/01/24 09:04:12;;;;;;;17.00;3.45;;;;;;;11.38;87.07;100194.66;5192819;28;20053;-74
2024/01/24 09:06:42;;;;;;;24.70;4.78;;;;;;;11.46;86.81;100221.31;5194506;28;20043;-74
2024/01/24 09:09:16;;;;;;;19.70;3.05;;;;;;;11.42;87.13;100221.56;5193076;28;20030;-74
2024/01/24 09:11:46;;;;;;;17.00;3.03;;;;;;;11.56;86.55;100222.66;5197875;28;20108;-74
2024/01/24 09:14:16;;;;;;;19.00;3.03;;;;;;;11.42;86.19;100225.00;5196977;28;20121;-74
2024/01/24 09:16:46;;;;;;;24.70;3.45;;;;;;;11.49;85.29;100223.84;5200260;28;20257;-74
2024/01/24 09:19:17;;;;;;;16.67;3.03;;;;;;;11.56;84.79;100222.66;5200302;28;20025;-74
2024/01/24 09:21:47;;;;;;;18.20;2.70;;;;;;;11.61;84.94;100217.22;5198698;28;20064;-74
2024/01/24 09:24:18;;;;;;;16.95;2.55;;;;;;;11.59;84.44;100232.16;5197705;28;20021;-74
2024/01/24 09:26:48;;;;;;;20.33;2.92;;;;;;;11.60;84.82;100245.16;5198946;28;20045;-74
2024/01/24 09:29:18;;;;;;;21.45;3.20;;;;;;;11.56;83.73;100233.13;5198797;28;20517;-73
2024/01/24 09:31:49;;;;;;;24.42;3.05;;;;;;;11.55;83.59;100239.25;5199308;28;20108;-74
2024/01/24 09:34:19;;;;;;;20.75;2.75;;;;;;;11.47;83.63;100243.97;5199223;28;20366;-74
2024/01/24 09:36:49;;;;;;;14.20;2.00;;;;;;;11.51;83.57;100248.16;5200241;28;20034;-73
2024/01/24 09:39:21;;;;;;;19.40;2.70;;;;;;;11.54;83.56;100255.88;5198596;28;20022;-74
2024/01/24 09:41:51;;;;;;;15.63;2.90;;;;;;;11.74;83.16;100252.38;5200891;28;20029;-74
2024/01/24 09:44:24;;;;;;;18.92;2.35;;;;;;;11.70;81.65;100254.31;5199033;28;20033;-74
2024/01/24 09:46:55;;;;;;;13.02;2.08;;;;;;;11.75;80.73;100260.16;5200323;28;20115;-74
2024/01/24 09:49:27;;;;;;;15.35;2.33;;;;;;;11.78;80.35;100265.25;5199643;28;20576;-74
2024/01/24 09:52:00;;;;;;;20.08;2.40;;;;;;;11.88;79.43;100229.03;5198953;28;20491;-74
2024/01/24 09:54:32;;;;;;;14.05;2.50;;;;;;;11.89;79.44;100247.31;5199712;28;20096;-72
2024/01/24 09:57:03;;;;;;;21.10;2.88;;;;;;;12.03;79.30;100259.75;5192124;28;20017;-74
2024/01/24 09:59:35;;;;;;;22.10;2.90;;;;;;;12.07;78.90;100259.56;5201969;28;20135;-73
2024/01/24 10:02:06;;;;;;;17.08;2.35;;;;;;;11.99;79.35;100259.03;5198965;28;20021;-74
2024/01/24 10:04:37;;;;;;;16.08;2.40;;;;;;;12.04;79.34;100266.69;5199600;28;20025;-74
2024/01/24 10:07:08;;;;;;;20.92;2.83;;;;;;;12.01;80.17;100261.59;5199007;28;20091;-74
2024/01/24 10:09:39;;;;;;;14.25;2.10;;;;;;;11.88;81.06;100261.31;5199589;28;20025;-74
2024/01/24 10:12:09;;;;;;;19.17;2.42;;;;;;;11.97;82.18;100266.13;5199594;28;20025;-74
2024/01/24 10:14:42;;;;;;;16.42;1.98;;;;;;;11.81;82.75;100275.59;5200328;28;20045;-73
2024/01/24 10:17:13;;;;;;;19.45;2.65;;;;;;;11.69;84.64;100291.88;5198728;28;20079;-74
2024/01/24 10:19:44;;;;;;;20.35;3.40;;;;;;;11.72;84.58;100302.19;5200065;28;20033;-74
2024/01/24 10:22:14;;;;;;;17.45;2.70;;;;;;;11.70;85.22;100324.13;5197285;28;20033;-73
2024/01/24 10:24:44;;;;;;;19.95;2.65;;;;;;;11.54;86.52;100307.34;5200165;28;20060;-74
2024/01/24 10:27:15;;;;;;;21.95;3.33;;;;;;;11.49;88.87;100304.97;5199190;28;20048;-74
2024/01/24 10:29:45;;;;;;;26.45;3.88;;;;;;;11.38;89.74;100301.94;5200775;28;20348;-74
2024/01/24 10:32:16;;;;;;;22.83;2.97;;;;;;;11.29;90.67;100302.31;5199566;28;20022;-74
2024/01/24 10:34:49;;;;;;;22.98;3.10;;;;;;;11.21;90.96;100335.81;5199743;28;20506;-74
2024/01/24 10:37:20;;;;;;;26.85;3.30;;;;;;;11.22;90.19;100342.75;5199789;28;20083;-73
2024/01/24 10:39:53;;;;;;;21.50;2.65;;;;;;;11.32;88.83;100315.31;5200319;28;20033;-74
2024/01/24 10:42:30;;;;;;;18.02;2.78;;;;;;;11.55;85.94;100315.16;5199630;28;20026;-74
2024/01/24 10:45:03;;;;;;;20.17;3.15;;;;;;;11.62;84.92;100319.22;5199390;28;20136;-72
2024/01/24 10:47:34;;;;;;;17.13;2.70;;;;;;;11.53;84.63;100311.75;5199184;28;20437;-73
2024/01/24 10:50:06;;;;;;;16.88;2.25;;;;;;;11.63;84.12;100307.00;5199929;28;20037;-74
2024/01/24 10:52:38;;;;;;;21.30;3.08;;;;;;;11.77;83.41;100318.53;5198636;28;20116;-74
2024/01/24 10:55:11;;;;;;;15.18;2.45;;;;;;;11.74;82.77;100315.19;5199663;28;20155;-73
2024/01/24 10:57:42;;;;;;;21.38;2.50;;;;;;;11.56;82.82;100309.03;5198256;28;20029;-74
2024/01/24 11:00:15;;;;;;;16.52;2.78;;;;;;;11.59;82.66;100310.69;5198251;28;20307;-74
2024/01/24 11:02:45;;;;;;;21.95;3.97;;;;;;;11.50;82.68;100326.72;5181104;28;20022;-73
2024/01/24 11:05:24;;;;;;;20.95;3.35;;;;;;;11.55;83.17;100325.63;5198408;28;20052;-74
2024/01/24 11:08:07;;;;;;;27.83;5.20;;;;;;;11.54;81.48;100318.69;5198147;28;20051;-74
2024/01/24 11:10:40;;;;;;;23.17;3.10;;;;;;;11.59;81.67;100315.91;5192592;28;20163;-73
2024/01/24 11:13:11;;;;;;;20.13;3.20;;;;;;;11.51;81.20;100325.81;5198159;28;20706;-74
2024/01/24 11:15:43;;;;;;;22.48;3.28;;;;;;;11.52;82.41;100323.13;5199039;28;20042;-74
2024/01/24 11:18:24;;;;;;;19.02;2.90;;;;;;;11.53;81.83;100330.06;5194779;28;20025;-73
2024/01/24 11:21:00;;;;;;;28.60;4.90;;;;;;;11.49;82.85;100331.13;5198372;28;20079;-74
2024/01/24 11:23:46;;;;;;;27.17;4.13;;;;;;;11.49;81.48;100331.13;5199025;28;20022;-73
2024/01/24 11:26:17;;;;;;;23.48;3.33;;;;;;;11.53;81.08;100331.81;5194096;28;20474;-73
2024/01/24 11:28:47;;;;;;;20.90;4.13;;;;;;;11.41;81.52;100335.81;5199582;28;20040;-74
2024/01/24 11:31:37;;;;;;;23.80;2.83;;;;;;;11.42;80.79;100324.44;5197577;28;20275;-74
2024/01/24 11:34:14;;;;;;;17.17;2.65;;;;;;;11.38;81.68;100337.72;5192206;28;20017;-72
2024/01/24 11:36:48;;;;;;;17.17;3.70;;;;;;;11.42;80.45;100327.06;5197245;28;20037;-74
2024/01/24 11:42:26;;;;;;;24.58;3.38;;;;;;;11.34;81.60;100363.19;5199484;28;20033;-73